<?xml version="1.0" encoding="UTF-8" standalone="no" ?><gpx xmlns="http://www.topografix.com/GPX/1/1" xmlns:gpxx="http://www.garmin.com/xmlschemas/GpxExtensions/v3" xmlns:wptx1="http://www.garmin.com/xmlschemas/WaypointExtension/v1" xmlns:gpxtpx="http://www.garmin.com/xmlschemas/TrackPointExtension/v1" creator="GuideVTT.com" version="1.1" xmlns:xsi="http://www.w3.org/2001/XMLSchema-instance" xsi:schemaLocation="http://www.topografix.com/GPX/1/1 http://www.topografix.com/GPX/1/1/gpx.xsd http://www.garmin.com/xmlschemas/GpxExtensions/v3 http://www8.garmin.com/xmlschemas/GpxExtensionsv3.xsd http://www.garmin.com/xmlschemas/WaypointExtension/v1 http://www8.garmin.com/xmlschemas/WaypointExtensionv1.xsd http://www.garmin.com/xmlschemas/TrackPointExtension/v1 http://www.garmin.com/xmlschemas/TrackPointExtensionv1.xsd">
<metadata><link href="http://www.garmin.com"><text>Garmin International</text></link><time>2013-06-22T15:13:50Z</time></metadata>
<trk><name>ne_tn_757.gpx</name><extensions><gpxx:TrackExtension><gpxx:DisplayColor>Cyan</gpxx:DisplayColor></gpxx:TrackExtension></extensions><trkseg>
<trkpt lat="46.97986401" lon="6.60704415"><ele>1043.900513</ele><time>2008-04-14T16:51:13Z</time></trkpt>
<trkpt lat="46.98032140" lon="6.60685305"><ele>1043.046143</ele><time>2008-04-14T16:51:25Z</time></trkpt>
<trkpt lat="46.98062849" lon="6.60578363"><ele>1041.926758</ele><time>2008-04-14T16:51:46Z</time></trkpt>
<trkpt lat="46.98057836" lon="6.60507463"><ele>1040.512329</ele><time>2008-04-14T16:51:59Z</time></trkpt>
<trkpt lat="46.97993955" lon="6.60382273"><ele>1040.162354</ele><time>2008-04-14T16:52:28Z</time></trkpt>
<trkpt lat="46.97915692" lon="6.60258624"><ele>1042.242065</ele><time>2008-04-14T16:52:59Z</time></trkpt>
<trkpt lat="46.97865454" lon="6.60154258"><ele>1042.515625</ele><time>2008-04-14T16:53:22Z</time></trkpt>
<trkpt lat="46.97847654" lon="6.60057273"><ele>1043.484497</ele><time>2008-04-14T16:53:40Z</time></trkpt>
<trkpt lat="46.97823441" lon="6.59944617"><ele>1046.218506</ele><time>2008-04-14T16:54:02Z</time></trkpt>
<trkpt lat="46.97765067" lon="6.59835125"><ele>1050.947632</ele><time>2008-04-14T16:54:27Z</time></trkpt>
<trkpt lat="46.97683007" lon="6.59685263"><ele>1056.267578</ele><time>2008-04-14T16:55:02Z</time></trkpt>
<trkpt lat="46.97645588" lon="6.59612248"><ele>1057.157349</ele><time>2008-04-14T16:55:19Z</time></trkpt>
<trkpt lat="46.97590557" lon="6.59468539"><ele>1053.671631</ele><time>2008-04-14T16:55:49Z</time></trkpt>
<trkpt lat="46.97496152" lon="6.59353053"><ele>1052.249512</ele><time>2008-04-14T16:56:22Z</time></trkpt>
<trkpt lat="46.97409927" lon="6.59249270"><ele>1051.824585</ele><time>2008-04-14T16:56:51Z</time></trkpt>
<trkpt lat="46.97327947" lon="6.59111253"><ele>1051.238037</ele><time>2008-04-14T16:57:25Z</time></trkpt>
<trkpt lat="46.97273007" lon="6.58980698"><ele>1047.668701</ele><time>2008-04-14T16:57:53Z</time></trkpt>
<trkpt lat="46.97227255" lon="6.58876285"><ele>1046.622803</ele><time>2008-04-14T16:58:15Z</time></trkpt>
<trkpt lat="46.97189646" lon="6.58778316"><ele>1043.14209</ele><time>2008-04-14T16:58:36Z</time></trkpt>
<trkpt lat="46.97170593" lon="6.58635371"><ele>1041</ele><time>2008-04-14T16:59:02Z</time></trkpt>
<trkpt lat="46.97147833" lon="6.58478030"><ele>1038.951538</ele><time>2008-04-14T16:59:32Z</time></trkpt>
<trkpt lat="46.97084509" lon="6.58551316"><ele>1038.49353</ele><time>2008-04-14T16:59:53Z</time></trkpt>
<trkpt lat="46.97012493" lon="6.58544574"><ele>1039.503662</ele><time>2008-04-14T17:00:13Z</time></trkpt>
<trkpt lat="46.96940497" lon="6.58540461"><ele>1045.659912</ele><time>2008-04-14T17:00:32Z</time></trkpt>
<trkpt lat="46.96882677" lon="6.58507213"><ele>1047.99939</ele><time>2008-04-14T17:00:48Z</time></trkpt>
<trkpt lat="46.96827477" lon="6.58463410"><ele>1052.740479</ele><time>2008-04-14T17:01:05Z</time></trkpt>
<trkpt lat="46.96796307" lon="6.58385060"><ele>1052.157227</ele><time>2008-04-14T17:01:22Z</time></trkpt>
<trkpt lat="46.96776634" lon="6.58280245"><ele>1055.5448</ele><time>2008-04-14T17:01:42Z</time></trkpt>
<trkpt lat="46.96775604" lon="6.58142282"><ele>1050.227051</ele><time>2008-04-14T17:02:07Z</time></trkpt>
<trkpt lat="46.96766909" lon="6.58062261"><ele>1046.124023</ele><time>2008-04-14T17:02:21Z</time></trkpt>
<trkpt lat="46.96733505" lon="6.57926130"><ele>1045.262817</ele><time>2008-04-14T17:02:48Z</time></trkpt>
<trkpt lat="46.96683541" lon="6.57861225"><ele>1065.787598</ele><time>2008-04-14T17:03:06Z</time></trkpt>
<trkpt lat="46.96669606" lon="6.57802315"><ele>1061.731567</ele><time>2008-04-14T17:03:17Z</time></trkpt>
<trkpt lat="46.96619998" lon="6.57665134"><ele>1050.406006</ele><time>2008-04-14T17:03:45Z</time></trkpt>
<trkpt lat="46.96591571" lon="6.57593317"><ele>1047.531982</ele><time>2008-04-14T17:04:00Z</time></trkpt>
<trkpt lat="46.96596028" lon="6.57468411"><ele>1036</ele><time>2008-04-14T17:04:23Z</time></trkpt>
<trkpt lat="46.96581684" lon="6.57355633"><ele>1036.53186</ele><time>2008-04-14T17:04:44Z</time></trkpt>
<trkpt lat="46.96535564" lon="6.57323525"><ele>1049.723633</ele><time>2008-04-14T17:04:58Z</time></trkpt>
<trkpt lat="46.96521586" lon="6.57259363"><ele>1048.604858</ele><time>2008-04-14T17:05:10Z</time></trkpt>
<trkpt lat="46.96498642" lon="6.57199287"><ele>1042.767456</ele><time>2008-04-14T17:05:23Z</time></trkpt>
<trkpt lat="46.96471912" lon="6.57114307"><ele>1047.749268</ele><time>2008-04-14T17:05:40Z</time></trkpt>
<trkpt lat="46.96443933" lon="6.56983357"><ele>1048.920532</ele><time>2008-04-14T17:06:05Z</time></trkpt>
<trkpt lat="46.96394024" lon="6.56926348"><ele>1051.781128</ele><time>2008-04-14T17:06:22Z</time></trkpt>
<trkpt lat="46.96347554" lon="6.56848261"><ele>1053.104248</ele><time>2008-04-14T17:06:41Z</time></trkpt>
<trkpt lat="46.96324458" lon="6.56768482"><ele>1043.803223</ele><time>2008-04-14T17:06:56Z</time></trkpt>
<trkpt lat="46.96323559" lon="6.56650237"><ele>1040.785645</ele><time>2008-04-14T17:07:18Z</time></trkpt>
<trkpt lat="46.96328106" lon="6.56538475"><ele>1038.441528</ele><time>2008-04-14T17:07:38Z</time></trkpt>
<trkpt lat="46.96299722" lon="6.56473237"><ele>1050.290405</ele><time>2008-04-14T17:07:52Z</time></trkpt>
<trkpt lat="46.96304327" lon="6.56369357"><ele>1044.466187</ele><time>2008-04-14T17:08:11Z</time></trkpt>
<trkpt lat="46.96258300" lon="6.56232140"><ele>1045.882568</ele><time>2008-04-14T17:08:39Z</time></trkpt>
<trkpt lat="46.96252888" lon="6.56112657"><ele>1041.575439</ele><time>2008-04-14T17:09:01Z</time></trkpt>
<trkpt lat="46.96292318" lon="6.55975359"><ele>1041.989014</ele><time>2008-04-14T17:09:28Z</time></trkpt>
<trkpt lat="46.96363761" lon="6.55907176"><ele>1042.178955</ele><time>2008-04-14T17:09:51Z</time></trkpt>
<trkpt lat="46.96453303" lon="6.55853150"><ele>1043.012573</ele><time>2008-04-14T17:10:17Z</time></trkpt>
<trkpt lat="46.96478732" lon="6.55767321"><ele>1042.697388</ele><time>2008-04-14T17:10:34Z</time></trkpt>
<trkpt lat="46.96505665" lon="6.55760309"><ele>1042.860229</ele><time>2008-04-14T17:10:41Z</time></trkpt>
<trkpt lat="46.96500774" lon="6.55709142"><ele>1041.491943</ele><time>2008-04-14T17:10:51Z</time></trkpt>
<trkpt lat="46.96427755" lon="6.55572369"><ele>1038.735352</ele><time>2008-04-14T17:11:22Z</time></trkpt>
<trkpt lat="46.96409463" lon="6.55533249"><ele>1038.710327</ele><time>2008-04-14T17:11:31Z</time></trkpt>
<trkpt lat="46.96423185" lon="6.55446299"><ele>1037.871338</ele><time>2008-04-14T17:11:47Z</time></trkpt>
<trkpt lat="46.96463205" lon="6.55386509"><ele>1037.244995</ele><time>2008-04-14T17:12:03Z</time></trkpt>
<trkpt lat="46.96533552" lon="6.55293368"><ele>1037.865723</ele><time>2008-04-14T17:12:28Z</time></trkpt>
<trkpt lat="46.96604747" lon="6.55193640"><ele>1041.447266</ele><time>2008-04-14T17:12:54Z</time></trkpt>
<trkpt lat="46.96712779" lon="6.55088044"><ele>1043.868042</ele><time>2008-04-14T17:13:29Z</time></trkpt>
<trkpt lat="46.96811048" lon="6.54999689"><ele>1043.192017</ele><time>2008-04-14T17:14:00Z</time></trkpt>
<trkpt lat="46.96886850" lon="6.54914331"><ele>1046.871216</ele><time>2008-04-14T17:14:25Z</time></trkpt>
<trkpt lat="46.96949241" lon="6.54839705"><ele>1052.239014</ele><time>2008-04-14T17:14:47Z</time></trkpt>
<trkpt lat="46.96980109" lon="6.54760345"><ele>1053.48291</ele><time>2008-04-14T17:15:03Z</time></trkpt>
<trkpt lat="46.97020084" lon="6.54695288"><ele>1058.06665</ele><time>2008-04-14T17:15:19Z</time></trkpt>
<trkpt lat="46.97032901" lon="6.54608340"><ele>1059.819092</ele><time>2008-04-14T17:15:36Z</time></trkpt>
<trkpt lat="46.97072917" lon="6.54548538"><ele>1063.751343</ele><time>2008-04-14T17:15:51Z</time></trkpt>
<trkpt lat="46.97149012" lon="6.54501275"><ele>1066.645386</ele><time>2008-04-14T17:16:13Z</time></trkpt>
<trkpt lat="46.97165754" lon="6.54456314"><ele>1067.513794</ele><time>2008-04-14T17:16:22Z</time></trkpt>
<trkpt lat="46.97184068" lon="6.54382414"><ele>1071.793457</ele><time>2008-04-14T17:16:37Z</time></trkpt>
<trkpt lat="46.97206144" lon="6.54329478"><ele>1076.006958</ele><time>2008-04-14T17:16:48Z</time></trkpt>
<trkpt lat="46.97200785" lon="6.54219174"><ele>1078.23584</ele><time>2008-04-14T17:17:08Z</time></trkpt>
<trkpt lat="46.97214122" lon="6.54199238"><ele>1079.595459</ele><time>2008-04-14T17:17:13Z</time></trkpt>
<trkpt lat="46.97255050" lon="6.54256381"><ele>1083.06897</ele><time>2008-04-14T17:17:28Z</time></trkpt>
<trkpt lat="46.97276647" lon="6.54257335"><ele>1088.890015</ele><time>2008-04-14T17:17:34Z</time></trkpt>
<trkpt lat="46.97330888" lon="6.54176261"><ele>1108.645386</ele><time>2008-04-14T17:17:55Z</time></trkpt>
<trkpt lat="46.97334768" lon="6.54097342"><ele>1112.117065</ele><time>2008-04-14T17:18:09Z</time></trkpt>
<trkpt lat="46.97343248" lon="6.54031489"><ele>1118.307983</ele><time>2008-04-14T17:18:21Z</time></trkpt>
<trkpt lat="46.97350725" lon="6.53952509"><ele>1122.936523</ele><time>2008-04-14T17:18:36Z</time></trkpt>
<trkpt lat="46.97369201" lon="6.53899630"><ele>1124.242432</ele><time>2008-04-14T17:18:47Z</time></trkpt>
<trkpt lat="46.97410769" lon="6.54038245"><ele>1135.886841</ele><time>2008-04-14T17:19:14Z</time></trkpt>
<trkpt lat="46.97443320" lon="6.54174384"><ele>1139.587891</ele><time>2008-04-14T17:19:41Z</time></trkpt>
<trkpt lat="46.97471290" lon="6.54300087"><ele>1142.727173</ele><time>2008-04-14T17:20:05Z</time></trkpt>
<trkpt lat="46.97521980" lon="6.54455642"><ele>1143.575195</ele><time>2008-04-14T17:20:36Z</time></trkpt>
<trkpt lat="46.97558982" lon="6.54586455"><ele>1145.702759</ele><time>2008-04-14T17:21:02Z</time></trkpt>
<trkpt lat="46.97585691" lon="6.54666183"><ele>1149.624023</ele><time>2008-04-14T17:21:18Z</time></trkpt>
<trkpt lat="46.97619195" lon="6.54810201"><ele>1148.822144</ele><time>2008-04-14T17:21:46Z</time></trkpt>
<trkpt lat="46.97650684" lon="6.54926653"><ele>1152.615845</ele><time>2008-04-14T17:22:09Z</time></trkpt>
<trkpt lat="46.97687681" lon="6.55057473"><ele>1148.244141</ele><time>2008-04-14T17:22:35Z</time></trkpt>
<trkpt lat="46.97730022" lon="6.55181634"><ele>1151.371948</ele><time>2008-04-14T17:23:00Z</time></trkpt>
<trkpt lat="46.97784562" lon="6.55371314"><ele>1154.495117</ele><time>2008-04-14T17:23:37Z</time></trkpt>
<trkpt lat="46.97794722" lon="6.55522297"><ele>1159.034058</ele><time>2008-04-14T17:24:05Z</time></trkpt>
<trkpt lat="46.97840505" lon="6.55626692"><ele>1162.02063</ele><time>2008-04-14T17:24:28Z</time></trkpt>
<trkpt lat="46.97845568" lon="6.55700213"><ele>1159.785889</ele><time>2008-04-14T17:24:41Z</time></trkpt>
<trkpt lat="46.97828679" lon="6.55843755"><ele>1156.514893</ele><time>2008-04-14T17:25:08Z</time></trkpt>
<trkpt lat="46.97834933" lon="6.55955373"><ele>1151.943359</ele><time>2008-04-14T17:25:28Z</time></trkpt>
<trkpt lat="46.97825744" lon="6.56047529"><ele>1143.664795</ele><time>2008-04-14T17:25:45Z</time></trkpt>
<trkpt lat="46.97876969" lon="6.56158412"><ele>1137.325684</ele><time>2008-04-14T17:26:09Z</time></trkpt>
<trkpt lat="46.97819307" lon="6.56264502"><ele>1126.397827</ele><time>2008-04-14T17:26:34Z</time></trkpt>
<trkpt lat="46.97810467" lon="6.56402653"><ele>1120.451904</ele><time>2008-04-14T17:27:00Z</time></trkpt>
<trkpt lat="46.97731026" lon="6.56484121"><ele>1103.507202</ele><time>2008-04-14T17:27:25Z</time></trkpt>
<trkpt lat="46.97741970" lon="6.56740238"><ele>1092.743652</ele><time>2008-04-14T17:28:12Z</time></trkpt>
<trkpt lat="46.97728467" lon="6.56857433"><ele>1084.327759</ele><time>2008-04-14T17:28:34Z</time></trkpt>
<trkpt lat="46.97694195" lon="6.56964448"><ele>1078.299561</ele><time>2008-04-14T17:28:55Z</time></trkpt>
<trkpt lat="46.97654207" lon="6.57029496"><ele>1073.546509</ele><time>2008-04-14T17:29:11Z</time></trkpt>
<trkpt lat="46.97591693" lon="6.57089650"><ele>1066.635742</ele><time>2008-04-14T17:29:31Z</time></trkpt>
<trkpt lat="46.97502144" lon="6.57143668"><ele>1058.000977</ele><time>2008-04-14T17:29:57Z</time></trkpt>
<trkpt lat="46.97506701" lon="6.57151480"><ele>1058.094971</ele><time>2008-04-14T17:29:59Z</time></trkpt>
<trkpt lat="46.97544060" lon="6.57333562"><ele>1057.171143</ele><time>2008-04-14T17:30:34Z</time></trkpt>
<trkpt lat="46.97580781" lon="6.57431542"><ele>1060.735352</ele><time>2008-04-14T17:30:54Z</time></trkpt>
<trkpt lat="46.97661477" lon="6.57515674"><ele>1064.198364</ele><time>2008-04-14T17:31:21Z</time></trkpt>
<trkpt lat="46.97711689" lon="6.57613441"><ele>1065.238281</ele><time>2008-04-14T17:31:43Z</time></trkpt>
<trkpt lat="46.97740215" lon="6.57698415"><ele>1064.536743</ele><time>2008-04-14T17:32:00Z</time></trkpt>
<trkpt lat="46.97768284" lon="6.57842542"><ele>1059.752075</ele><time>2008-04-14T17:32:27Z</time></trkpt>
<trkpt lat="46.97795599" lon="6.58006397"><ele>1057.816406</ele><time>2008-04-14T17:32:58Z</time></trkpt>
<trkpt lat="46.97846903" lon="6.58130441"><ele>1056.797729</ele><time>2008-04-14T17:33:25Z</time></trkpt>
<trkpt lat="46.97891665" lon="6.58221732"><ele>1055.680054</ele><time>2008-04-14T17:33:45Z</time></trkpt>
<trkpt lat="46.97924683" lon="6.58306640"><ele>1057.370972</ele><time>2008-04-14T17:34:03Z</time></trkpt>
<trkpt lat="46.97939204" lon="6.58444418"><ele>1054.803955</ele><time>2008-04-14T17:34:28Z</time></trkpt>
<trkpt lat="46.97971858" lon="6.58601625"><ele>1052.136108</ele><time>2008-04-14T17:34:58Z</time></trkpt>
<trkpt lat="46.98021503" lon="6.58745421"><ele>1050.971069</ele><time>2008-04-14T17:35:28Z</time></trkpt>
<trkpt lat="46.98086243" lon="6.58862692"><ele>1052.630249</ele><time>2008-04-14T17:35:55Z</time></trkpt>
<trkpt lat="46.98153591" lon="6.58968095"><ele>1056.381348</ele><time>2008-04-14T17:36:22Z</time></trkpt>
<trkpt lat="46.98227167" lon="6.59064201"><ele>1065.137939</ele><time>2008-04-14T17:36:48Z</time></trkpt>
<trkpt lat="46.98262548" lon="6.59104391"><ele>1068.536987</ele><time>2008-04-14T17:37:00Z</time></trkpt>
<trkpt lat="46.98280634" lon="6.59117250"><ele>1071.211914</ele><time>2008-04-14T17:37:05Z</time></trkpt>
<trkpt lat="46.98307608" lon="6.59115510"><ele>1076.101685</ele><time>2008-04-14T17:37:12Z</time></trkpt>
<trkpt lat="46.98326895" lon="6.59169099"><ele>1075.854248</ele><time>2008-04-14T17:37:23Z</time></trkpt>
<trkpt lat="46.98318240" lon="6.59215242"><ele>1071.942139</ele><time>2008-04-14T17:37:32Z</time></trkpt>
<trkpt lat="46.98309672" lon="6.59273213"><ele>1067.442627</ele><time>2008-04-14T17:37:43Z</time></trkpt>
<trkpt lat="46.98323697" lon="6.59345288"><ele>1063.977051</ele><time>2008-04-14T17:37:57Z</time></trkpt>
<trkpt lat="46.98346716" lon="6.59417222"><ele>1060.352295</ele><time>2008-04-14T17:38:11Z</time></trkpt>
<trkpt lat="46.98351707" lon="6.59484182"><ele>1054.289795</ele><time>2008-04-14T17:38:23Z</time></trkpt>
<trkpt lat="46.98401893" lon="6.59580666"><ele>1056.172119</ele><time>2008-04-14T17:38:46Z</time></trkpt>
<trkpt lat="46.98451952" lon="6.59660065"><ele>1059.773804</ele><time>2008-04-14T17:39:05Z</time></trkpt>
<trkpt lat="46.98520125" lon="6.59756270"><ele>1063.547485</ele><time>2008-04-14T17:39:31Z</time></trkpt>
<trkpt lat="46.98551430" lon="6.59854370"><ele>1062.578613</ele><time>2008-04-14T17:39:50Z</time></trkpt>
<trkpt lat="46.98565605" lon="6.59947479"><ele>1062.013916</ele><time>2008-04-14T17:40:08Z</time></trkpt>
<trkpt lat="46.98540049" lon="6.60020178"><ele>1056.244019</ele><time>2008-04-14T17:40:23Z</time></trkpt>
<trkpt lat="46.98535984" lon="6.60079394"><ele>1054.139893</ele><time>2008-04-14T17:40:33Z</time></trkpt>
<trkpt lat="46.98427619" lon="6.60145495"><ele>1043.117798</ele><time>2008-04-14T17:41:05Z</time></trkpt>
<trkpt lat="46.98360495" lon="6.60192548"><ele>1042.015381</ele><time>2008-04-14T17:41:25Z</time></trkpt>
<trkpt lat="46.98325905" lon="6.60260125"><ele>1040.811035</ele><time>2008-04-14T17:41:40Z</time></trkpt>
<trkpt lat="46.98271698" lon="6.60351667"><ele>1040.796875</ele><time>2008-04-14T17:42:02Z</time></trkpt>
<trkpt lat="46.98218400" lon="6.60444506"><ele>1040.874146</ele><time>2008-04-14T17:42:24Z</time></trkpt>
<trkpt lat="46.98165819" lon="6.60512359"><ele>1042.286499</ele><time>2008-04-14T17:42:43Z</time></trkpt>
<trkpt lat="46.98112224" lon="6.60564453"><ele>1042.893555</ele><time>2008-04-14T17:43:00Z</time></trkpt>
<trkpt lat="46.98062906" lon="6.60586248"><ele>1042.071655</ele><time>2008-04-14T17:43:14Z</time></trkpt>
<trkpt lat="46.98041135" lon="6.60685166"><ele>1043.212036</ele><time>2008-04-14T17:43:33Z</time></trkpt>
<trkpt lat="46.98000744" lon="6.60697621"><ele>1042.75415</ele><time>2008-04-14T17:43:44Z</time></trkpt>
</trkseg></trk></gpx>